Time;durP1;ratioP1;P1;durP2;ratioP2;P2;SDS_P1;SDS_P2;PMS_P1;PMS_P2;Temp;Humidity;BMP_temperature;BMP_pressure;BME280_temperature;BME280_humidity;BME280_pressure;Samples;Min_cycle;Max_cycle;Signal;HPM_P1;HPM_P2
2021/08/17 00:00:42;;;;;;;4.30;3.70;;;;;;;23.29;30.11;93676.34;4967640;28;20720;-72
2021/08/17 00:03:08;;;;;;;7.55;3.42;;;;;;;23.19;29.62;93675.25;4988446;28;20038;-73
2021/08/17 00:05:35;;;;;;;3.95;3.28;;;;;;;23.21;29.56;93669.44;4971794;28;20042;-73
2021/08/17 00:08:03;;;;;;;4.40;3.03;;;;;;;23.25;29.32;93681.03;4972805;28;20030;-74
2021/08/17 00:10:28;;;;;;;5.55;3.13;;;;;;;23.24;30.46;93663.19;4968370;28;20137;-74
2021/08/17 00:12:53;;;;;;;7.90;4.32;;;;;;;23.01;31.78;93650.94;4977427;28;20034;-75
2021/08/17 00:15:19;;;;;;;4.07;3.13;;;;;;;23.26;30.12;93674.44;4971086;28;20523;-74
2021/08/17 00:17:45;;;;;;;4.10;3.38;;;;;;;23.08;30.19;93664.44;4976646;28;20202;-73
2021/08/17 00:20:12;;;;;;;3.83;3.30;;;;;;;22.94;31.92;93664.53;4973342;28;20138;-74
2021/08/17 00:22:37;;;;;;;3.53;3.20;;;;;;;22.92;31.39;93683.13;4972475;28;20041;-74
2021/08/17 00:25:05;;;;;;;7.20;3.03;;;;;;;22.86;31.19;93679.28;4974254;28;20042;-74
2021/08/17 00:27:30;;;;;;;3.75;3.08;;;;;;;22.77;31.70;93681.63;4973431;28;20133;-74
2021/08/17 00:29:55;;;;;;;4.78;2.85;;;;;;;22.40;31.63;93632.56;4972438;28;20084;-74
2021/08/17 00:32:21;;;;;;;6.38;3.03;;;;;;;22.62;31.48;93670.06;4973478;28;20177;-73
2021/08/17 00:34:46;;;;;;;5.05;3.33;;;;;;;22.55;31.54;93674.72;4972887;28;20037;-75
2021/08/17 00:37:14;;;;;;;5.55;2.97;;;;;;;22.37;31.79;93657.75;4969393;28;20027;-73
2021/08/17 00:39:39;;;;;;;3.60;3.10;;;;;;;22.41;32.26;93674.75;4976900;28;20117;-74
2021/08/17 00:42:07;;;;;;;3.92;2.90;;;;;;;22.37;31.45;93674.00;4972412;28;20046;-75
2021/08/17 00:44:33;;;;;;;4.03;3.58;;;;;;;22.37;31.27;93665.88;4974959;28;20089;-73
2021/08/17 00:46:59;;;;;;;5.10;2.78;;;;;;;22.46;31.60;93677.06;4972883;28;20105;-74
2021/08/17 00:49:25;;;;;;;3.60;2.80;;;;;;;22.42;31.63;93676.31;4975293;28;20566;-75
2021/08/17 00:52:07;;;;;;;3.38;2.97;;;;;;;22.43;32.62;93672.44;4972765;28;20051;-74
2021/08/17 00:54:37;;;;;;;6.07;3.50;;;;;;;22.41;31.34;93661.22;4972482;28;20424;-74
2021/08/17 00:57:03;;;;;;;4.68;3.58;;;;;;;22.43;31.54;93664.31;4973211;28;20034;-73
2021/08/17 00:59:30;;;;;;;4.00;3.20;;;;;;;22.35;32.56;93660.81;4972967;28;20496;-76
2021/08/17 01:01:56;;;;;;;3.38;3.00;;;;;;;22.26;32.10;93669.38;4975728;28;20026;-73
2021/08/17 01:04:21;;;;;;;3.92;3.28;;;;;;;22.13;31.62;93659.31;4972240;28;20070;-73
2021/08/17 01:06:47;;;;;;;4.40;3.30;;;;;;;22.32;30.94;93666.25;4969489;28;20589;-75
2021/08/17 01:09:13;;;;;;;4.03;3.22;;;;;;;22.17;31.19;93646.53;4972208;28;20056;-75
2021/08/17 01:11:46;;;;;;;4.15;3.33;;;;;;;22.28;31.24;93667.06;4968492;28;20038;-73
2021/08/17 01:14:13;;;;;;;5.88;3.58;;;;;;;22.28;31.37;93667.06;4970790;28;20379;-74
2021/08/17 01:16:40;;;;;;;4.60;3.53;;;;;;;22.10;31.65;93638.41;4975873;28;20030;-75
2021/08/17 01:19:05;;;;;;;3.70;3.13;;;;;;;22.34;31.37;93658.53;4976092;28;20038;-73
2021/08/17 01:21:33;;;;;;;5.25;3.53;;;;;;;22.29;31.84;93668.56;4971684;28;20469;-74
2021/08/17 01:23:58;;;;;;;7.95;4.38;;;;;;;22.18;32.32;93662.41;4979716;28;20130;-73
2021/08/17 01:26:23;;;;;;;4.95;3.80;;;;;;;22.10;32.06;93670.91;4979068;28;20046;-74
2021/08/17 01:28:49;;;;;;;4.32;3.55;;;;;;;22.06;32.36;93646.53;4972554;28;20541;-74
2021/08/17 01:31:14;;;;;;;4.03;3.63;;;;;;;22.18;32.41;93665.09;4979805;28;20279;-75
2021/08/17 01:33:40;;;;;;;4.57;3.97;;;;;;;22.08;32.65;93657.00;4972592;28;20476;-74
2021/08/17 01:36:05;;;;;;;6.03;4.30;;;;;;;22.17;32.71;93671.69;4975552;28;20128;-73
2021/08/17 01:38:30;;;;;;;4.03;3.50;;;;;;;22.05;33.68;93666.66;4976221;28;20030;-73
2021/08/17 01:40:56;;;;;;;8.07;4.20;;;;;;;22.11;33.45;93675.94;4975748;28;20415;-74
2021/08/17 01:43:22;;;;;;;5.15;3.45;;;;;;;22.08;34.27;93675.94;4974310;28;21253;-74
2021/08/17 01:45:58;;;;;;;4.40;3.90;;;;;;;21.97;34.57;93667.84;4977588;28;20041;-74
2021/08/17 01:48:26;;;;;;;4.72;3.90;;;;;;;22.01;34.45;93674.00;4975961;28;20659;-73
2021/08/17 01:50:52;;;;;;;4.00;3.58;;;;;;;22.10;34.00;93670.91;4979640;28;20374;-74
2021/08/17 01:53:18;;;;;;;5.93;4.30;;;;;;;21.93;34.06;93658.16;4975093;28;20039;-74
2021/08/17 01:55:43;;;;;;;7.18;4.13;;;;;;;21.89;35.12;93666.31;4992984;28;20030;-73
2021/08/17 01:58:08;;;;;;;5.32;3.22;;;;;;;21.79;34.44;93667.09;4971983;28;20043;-74
2021/08/17 02:00:34;;;;;;;3.95;3.28;;;;;;;21.77;34.11;93655.84;4976871;28;20424;-75
2021/08/17 02:02:59;;;;;;;6.03;3.80;;;;;;;21.69;34.40;93659.72;4977283;28;20038;-73
2021/08/17 02:05:25;;;;;;;5.40;3.70;;;;;;;21.64;33.48;93644.66;4976505;28;20505;-73
2021/08/17 02:07:53;;;;;;;5.40;3.53;;;;;;;21.73;33.54;93665.91;4980909;28;20030;-73
2021/08/17 02:10:19;;;;;;;4.05;3.50;;;;;;;21.67;34.36;93659.34;4975435;28;20061;-73
2021/08/17 02:12:44;;;;;;;3.95;3.63;;;;;;;21.75;33.96;93655.50;4975692;28;20089;-73
2021/08/17 02:15:10;;;;;;;10.10;4.00;;;;;;;21.55;33.94;93648.91;4974628;28;20038;-73
2021/08/17 02:17:36;;;;;;;4.22;3.60;;;;;;;21.52;34.23;93655.03;4977658;28;20058;-74
2021/08/17 02:20:01;;;;;;;4.43;4.03;;;;;;;21.48;34.49;93657.75;4976348;28;20026;-73
2021/08/17 02:22:27;;;;;;;6.22;4.05;;;;;;;21.56;34.16;93666.69;4976929;28;20120;-74
2021/08/17 02:24:52;;;;;;;5.93;3.67;;;;;;;21.61;34.29;93666.31;4973305;28;20235;-73
2021/08/17 02:27:17;;;;;;;4.35;3.40;;;;;;;21.55;34.07;93665.91;4976724;28;20407;-75
2021/08/17 02:29:43;;;;;;;7.60;4.22;;;;;;;21.47;34.24;93672.44;4973742;28;20030;-74
2021/08/17 02:32:08;;;;;;;4.50;3.90;;;;;;;21.40;33.98;93662.41;4976980;28;20066;-74
2021/08/17 02:34:33;;;;;;;4.57;3.42;;;;;;;21.51;33.55;93669.75;4975270;28;20085;-73
2021/08/17 02:36:59;;;;;;;5.35;3.72;;;;;;;21.55;33.09;93673.25;4978171;28;20146;-73
2021/08/17 02:39:24;;;;;;;4.60;3.50;;;;;;;21.42;33.31;93660.06;4977009;28;20049;-74
2021/08/17 02:41:50;;;;;;;4.72;3.60;;;;;;;21.45;33.37;93667.44;4976273;28;20417;-74
2021/08/17 02:44:15;;;;;;;5.45;3.90;;;;;;;21.44;33.10;93670.50;4978715;28;20423;-74
2021/08/17 02:46:40;;;;;;;4.97;3.90;;;;;;;21.45;33.05;93663.94;4974238;28;20129;-74
2021/08/17 02:49:06;;;;;;;7.38;3.70;;;;;;;21.53;33.79;93667.41;4977133;28;20050;-74
2021/08/17 02:51:32;;;;;;;6.72;3.75;;;;;;;21.42;33.71;93660.06;4976813;28;20678;-75
2021/08/17 02:53:57;;;;;;;6.30;3.83;;;;;;;21.31;33.95;93662.00;4977155;28;20062;-75
2021/08/17 02:56:22;;;;;;;4.80;4.30;;;;;;;21.33;34.57;93661.59;4973349;28;20485;-74
2021/08/17 02:58:48;;;;;;;3.90;3.50;;;;;;;21.35;34.98;93664.72;4975813;28;20034;-74
2021/08/17 03:01:13;;;;;;;4.50;3.55;;;;;;;21.35;34.75;93668.19;4972525;28;20038;-74
2021/08/17 03:03:38;;;;;;;11.85;4.80;;;;;;;21.38;34.36;93662.00;4977557;28;20049;-75
2021/08/17 03:06:04;;;;;;;5.63;3.88;;;;;;;21.32;34.20;93660.81;4972185;28;20465;-75
2021/08/17 03:08:29;;;;;;;6.20;3.78;;;;;;;21.19;34.38;93665.06;4974657;28;20092;-75
2021/08/17 03:10:55;;;;;;;5.40;4.18;;;;;;;21.11;35.17;93662.72;4974032;28;20034;-74
2021/08/17 03:13:20;;;;;;;6.03;4.07;;;;;;;21.15;34.39;93650.75;4976134;28;20034;-74
2021/08/17 03:15:46;;;;;;;6.65;4.15;;;;;;;21.18;35.02;93666.22;4976540;28;20049;-73
2021/08/17 03:18:11;;;;;;;6.53;4.88;;;;;;;21.01;34.96;93661.56;4979615;28;20107;-74
2021/08/17 03:20:37;;;;;;;5.47;3.88;;;;;;;20.92;35.59;93653.03;4975571;28;20382;-74
2021/08/17 03:23:03;;;;;;;5.35;3.67;;;;;;;21.04;34.88;93660.78;4973252;28;20496;-74
2021/08/17 03:25:29;;;;;;;5.45;3.47;;;;;;;20.99;35.59;93663.84;4976818;28;20030;-74
2021/08/17 03:27:56;;;;;;;6.25;4.07;;;;;;;20.96;35.47;93673.50;4971317;28;20513;-74
2021/08/17 03:30:24;;;;;;;5.60;4.03;;;;;;;20.85;35.88;93672.66;4975605;28;20069;-73
2021/08/17 03:32:49;;;;;;;7.15;3.88;;;;;;;20.67;35.23;93617.78;4976016;28;20051;-74
2021/08/17 03:35:17;;;;;;;4.90;4.25;;;;;;;20.88;35.83;93663.03;4972548;28;20038;-73
2021/08/17 03:37:43;;;;;;;4.22;3.75;;;;;;;20.74;36.29;93661.03;4973244;28;20018;-73
2021/08/17 03:40:13;;;;;;;5.57;4.00;;;;;;;20.90;35.37;93663.44;4974765;28;20049;-73
2021/08/17 03:42:39;;;;;;;4.95;4.25;;;;;;;20.86;35.36;93662.63;4972901;28;20042;-73
2021/08/17 03:45:08;;;;;;;8.52;4.60;;;;;;;20.79;35.64;93665.28;4974881;28;20050;-74
2021/08/17 03:47:33;;;;;;;5.55;3.83;;;;;;;20.66;35.71;93656.75;4973450;28;20030;-74
2021/08/17 03:49:59;;;;;;;6.47;3.65;;;;;;;20.82;35.68;93670.72;4972300;28;20331;-73
2021/08/17 03:52:24;;;;;;;6.97;3.72;;;;;;;20.70;35.61;93664.88;4978705;28;20622;-75
2021/08/17 03:54:50;;;;;;;6.22;3.70;;;;;;;20.78;35.44;93659.13;4973682;28;20110;-73
2021/08/17 03:57:15;;;;;;;7.43;3.67;;;;;;;20.78;35.07;93675.31;4972911;28;20042;-73
2021/08/17 03:59:41;;;;;;;8.00;3.85;;;;;;;20.75;36.14;93673.41;4977789;28;20500;-73
2021/08/17 04:02:06;;;;;;;6.35;3.85;;;;;;;20.69;36.03;93666.03;4965307;28;20145;-74
2021/08/17 04:04:32;;;;;;;5.50;4.05;;;;;;;20.75;36.12;93672.63;4976564;28;20019;-73
2021/08/17 04:06:57;;;;;;;9.75;4.72;;;;;;;20.81;36.18;93671.88;4971612;28;20505;-74
2021/08/17 04:09:23;;;;;;;16.90;5.05;;;;;;;20.85;36.65;93669.97;4975663;28;20097;-74
2021/08/17 04:11:48;;;;;;;11.13;3.85;;;;;;;20.68;37.58;93653.69;4974306;28;20034;-74
2021/08/17 04:14:13;;;;;;;6.78;4.60;;;;;;;20.84;37.60;93675.75;4975217;28;20535;-73
2021/08/17 04:16:39;;;;;;;5.78;4.20;;;;;;;20.85;37.08;93653.75;4975480;28;20038;-74
2021/08/17 04:19:04;;;;;;;9.63;4.18;;;;;;;21.04;35.98;93652.66;4975507;28;20043;-73
2021/08/17 04:21:30;;;;;;;5.47;3.83;;;;;;;20.94;36.72;93653.41;4972747;28;20070;-74
2021/08/17 04:23:57;;;;;;;11.45;4.75;;;;;;;20.93;37.58;93659.97;4971301;28;20046;-73
2021/08/17 04:26:23;;;;;;;4.75;3.85;;;;;;;21.11;36.96;93660.81;4970488;28;20035;-73
2021/08/17 04:28:48;;;;;;;5.68;3.78;;;;;;;21.07;35.61;93641.06;4973275;28;20037;-75
2021/08/17 04:31:14;;;;;;;6.43;3.78;;;;;;;21.16;38.43;93660.44;4974027;28;20537;-73
2021/08/17 04:33:39;;;;;;;8.00;4.00;;;;;;;21.12;37.22;93662.31;4973869;28;20043;-74
2021/08/17 04:36:04;;;;;;;5.65;4.00;;;;;;;21.16;37.35;93659.66;4974347;28;20478;-73
2021/08/17 04:38:30;;;;;;;6.72;4.03;;;;;;;21.32;36.49;93649.22;4972322;28;20069;-74
2021/08/17 04:40:55;;;;;;;6.78;4.70;;;;;;;21.56;35.06;93664.00;4973115;28;20022;-74
2021/08/17 04:43:21;;;;;;;6.43;4.22;;;;;;;21.64;35.02;93660.13;4973298;28;20483;-74
2021/08/17 04:45:47;;;;;;;6.90;4.68;;;;;;;21.72;34.17;93667.84;4972755;28;20595;-74
2021/08/17 04:48:12;;;;;;;14.13;5.07;;;;;;;21.88;32.76;93665.53;4973670;28;20081;-74
2021/08/17 04:50:38;;;;;;;12.23;4.95;;;;;;;21.97;32.92;93667.84;4976416;28;20906;-75
2021/08/17 04:53:04;;;;;;;8.57;5.00;;;;;;;22.04;32.93;93667.84;4971976;28;20124;-74
2021/08/17 04:55:29;;;;;;;9.50;4.75;;;;;;;22.04;33.01;93662.44;4973503;28;20026;-74
2021/08/17 04:57:56;;;;;;;8.93;4.43;;;;;;;22.12;32.86;93666.66;4975570;28;20088;-74
2021/08/17 05:00:24;;;;;;;9.50;4.82;;;;;;;22.20;32.80;93665.47;4973345;28;20030;-74
2021/08/17 05:02:50;;;;;;;7.78;4.72;;;;;;;22.23;33.63;93664.75;4979112;28;20046;-74
2021/08/17 05:05:15;;;;;;;11.15;6.05;;;;;;;22.34;33.40;93664.69;4976986;28;20105;-73
2021/08/17 05:07:41;;;;;;;10.55;6.70;;;;;;;22.55;32.56;93667.34;4977167;28;20034;-74
2021/08/17 05:10:09;;;;;;;7.75;4.93;;;;;;;22.68;31.44;93662.28;4975608;28;20054;-75
2021/08/17 05:12:36;;;;;;;8.40;4.95;;;;;;;22.75;30.88;93664.97;4968489;28;20122;-74
2021/08/17 05:15:04;;;;;;;12.80;5.93;;;;;;;22.73;31.55;93664.59;4975821;28;20113;-74
2021/08/17 05:17:29;;;;;;;10.98;5.03;;;;;;;22.64;31.07;93648.72;4978923;28;20043;-74
2021/08/17 05:19:55;;;;;;;10.45;5.22;;;;;;;22.78;30.89;93666.13;4978626;28;20092;-74
2021/08/17 05:22:20;;;;;;;12.68;4.50;;;;;;;22.82;30.40;93673.09;4979995;28;20252;-74
2021/08/17 05:24:45;;;;;;;7.72;4.32;;;;;;;22.88;30.11;93666.09;4974300;28;20686;-74
2021/08/17 05:27:11;;;;;;;8.95;5.70;;;;;;;22.92;29.44;93675.00;4974927;28;20076;-73
2021/08/17 05:29:36;;;;;;;8.57;4.55;;;;;;;22.88;29.88;93671.50;4979697;28;20080;-75
2021/08/17 05:32:03;;;;;;;5.03;4.05;;;;;;;23.03;30.18;93678.41;4976614;28;20041;-74
2021/08/17 05:34:29;;;;;;;8.18;4.43;;;;;;;23.17;29.81;93685.75;4978146;28;20031;-76
2021/08/17 05:36:54;;;;;;;8.95;4.85;;;;;;;23.15;29.15;93669.84;4974929;28;20241;-73
2021/08/17 05:39:19;;;;;;;9.95;5.15;;;;;;;23.17;29.31;93669.47;4976696;28;20903;-75
2021/08/17 05:41:45;;;;;;;8.98;5.50;;;;;;;23.17;29.85;93674.09;4976771;28;20699;-75
2021/08/17 05:44:10;;;;;;;8.45;5.43;;;;;;;23.23;30.03;93686.06;4975877;28;20053;-73
2021/08/17 05:46:36;;;;;;;10.65;5.15;;;;;;;23.25;30.45;93681.81;4978684;28;20030;-73
2021/08/17 05:49:01;;;;;;;14.18;4.97;;;;;;;23.28;29.78;93685.66;4977553;28;20608;-73
2021/08/17 05:51:26;;;;;;;9.02;5.45;;;;;;;23.19;29.77;93671.75;4974114;28;20045;-73
2021/08/17 05:53:52;;;;;;;11.85;5.70;;;;;;;23.35;30.02;93689.13;4977052;28;20574;-76
2021/08/17 05:56:17;;;;;;;9.43;5.28;;;;;;;23.45;29.78;93672.00;4974937;28;20061;-74
2021/08/17 05:58:42;;;;;;;13.20;5.60;;;;;;;23.30;30.26;93662.41;4977312;28;20081;-73
2021/08/17 06:01:08;;;;;;;11.10;5.50;;;;;;;23.56;30.20;93677.38;4974657;28;20419;-73
2021/08/17 06:03:33;;;;;;;7.55;5.18;;;;;;;23.47;29.12;93652.56;4977925;28;20511;-75
2021/08/17 06:05:59;;;;;;;7.28;5.00;;;;;;;23.60;28.96;93661.84;4973963;28;20039;-74
2021/08/17 06:08:26;;;;;;;7.07;4.53;;;;;;;23.83;28.37;93678.34;4974705;28;20112;-73
2021/08/17 06:10:51;;;;;;;8.68;4.75;;;;;;;23.71;28.55;93667.94;4973293;28;20559;-75
2021/08/17 06:13:17;;;;;;;7.63;5.07;;;;;;;23.83;28.33;93678.34;4976803;28;20038;-73
2021/08/17 06:15:42;;;;;;;9.25;4.47;;;;;;;23.95;28.47;93677.84;4974508;28;20499;-74
2021/08/17 06:18:08;;;;;;;7.30;4.45;;;;;;;23.97;27.99;93670.06;4974657;28;20356;-73
2021/08/17 06:20:35;;;;;;;11.77;5.00;;;;;;;24.02;27.55;93677.78;4979494;28;20098;-74
2021/08/17 06:23:01;;;;;;;7.90;4.88;;;;;;;23.81;29.22;93677.94;4974636;28;20159;-73
2021/08/17 06:25:28;;;;;;;13.60;4.97;;;;;;;23.99;29.08;93672.38;4979105;28;20022;-74
2021/08/17 06:27:53;;;;;;;11.18;5.00;;;;;;;24.06;28.52;93655.25;4975487;28;20073;-73
2021/08/17 06:30:19;;;;;;;8.35;5.53;;;;;;;24.12;28.87;93668.03;4977829;28;20548;-74
2021/08/17 06:32:44;;;;;;;13.95;4.95;;;;;;;24.25;29.00;93665.56;4975158;28;20493;-74
2021/08/17 06:35:10;;;;;;;9.32;5.28;;;;;;;24.22;27.76;93669.09;4974386;28;20530;-74
2021/08/17 06:37:35;;;;;;;15.63;5.22;;;;;;;24.25;29.15;93668.28;4991150;28;20057;-74
2021/08/17 06:40:00;;;;;;;13.35;5.55;;;;;;;24.20;28.83;93664.06;4977257;28;20035;-74
2021/08/17 06:42:26;;;;;;;11.02;5.10;;;;;;;24.37;29.32;93665.06;4976305;28;20041;-74
2021/08/17 06:44:51;;;;;;;9.80;5.35;;;;;;;24.53;27.49;93657.13;4975784;28;20388;-76
2021/08/17 06:47:17;;;;;;;13.63;5.50;;;;;;;24.39;28.28;93651.84;4975232;28;20084;-74
2021/08/17 06:49:42;;;;;;;11.77;5.38;;;;;;;24.41;28.62;93661.13;4976395;28;20234;-76
2021/08/17 06:52:08;;;;;;;8.55;4.57;;;;;;;24.53;27.69;93657.13;4990788;28;20049;-75
2021/08/17 06:54:33;;;;;;;7.05;4.72;;;;;;;24.49;27.95;93659.13;4975229;28;20031;-74
2021/08/17 06:56:58;;;;;;;8.55;5.55;;;;;;;24.21;29.33;93618.63;4977550;28;20397;-74
2021/08/17 06:59:24;;;;;;;17.63;5.88;;;;;;;24.66;28.46;93658.16;4975033;28;20042;-74
2021/08/17 07:01:49;;;;;;;12.52;5.55;;;;;;;24.74;28.45;93643.31;4974804;28;20034;-74
2021/08/17 07:04:15;;;;;;;9.52;4.50;;;;;;;24.91;29.06;93651.66;4975466;28;20041;-76
2021/08/17 07:06:40;;;;;;;10.88;5.03;;;;;;;24.64;28.41;93637.97;4975950;28;20476;-74
2021/08/17 07:09:05;;;;;;;6.72;5.03;;;;;;;24.66;29.17;93646.50;4973504;28;20667;-74
2021/08/17 07:11:31;;;;;;;9.57;5.88;;;;;;;24.76;28.95;93634.75;4973938;28;20576;-74
2021/08/17 07:13:56;;;;;;;10.13;4.72;;;;;;;24.96;28.49;93645.78;4974724;28;20053;-74
2021/08/17 07:16:22;;;;;;;9.05;5.53;;;;;;;25.02;28.48;93644.16;4976917;28;20457;-74
2021/08/17 07:18:47;;;;;;;9.20;4.90;;;;;;;25.31;28.67;93656.22;4973820;28;20042;-74
2021/08/17 07:21:13;;;;;;;11.20;5.10;;;;;;;25.45;28.02;93639.69;4975689;28;20061;-74
2021/08/17 07:23:38;;;;;;;9.07;5.43;;;;;;;25.40;27.47;93642.84;4974491;28;20412;-74
2021/08/17 07:26:05;;;;;;;8.93;5.15;;;;;;;25.45;27.09;93636.94;4973992;28;20504;-74
2021/08/17 07:28:30;;;;;;;10.05;5.53;;;;;;;25.55;27.93;93646.91;4974010;28;20102;-75
2021/08/17 07:30:56;;;;;;;12.60;5.72;;;;;;;25.49;28.24;93645.84;4972636;28;20513;-74
2021/08/17 07:33:21;;;;;;;13.50;5.50;;;;;;;25.39;29.10;93635.88;4964114;28;20453;-74
2021/08/17 07:35:47;;;;;;;8.25;5.15;;;;;;;25.59;28.64;93644.91;4973045;28;20563;-76
2021/08/17 07:38:13;;;;;;;12.80;5.68;;;;;;;25.59;28.00;93642.19;4971757;28;20046;-74
2021/08/17 07:40:38;;;;;;;9.07;5.30;;;;;;;25.72;27.99;93650.53;4973869;28;20045;-74
2021/08/17 07:43:04;;;;;;;8.60;4.80;;;;;;;26.00;27.88;93646.63;4974260;28;20042;-74
2021/08/17 07:45:29;;;;;;;11.35;5.03;;;;;;;25.97;27.90;93644.72;4971879;28;20038;-74
2021/08/17 07:47:55;;;;;;;11.10;5.22;;;;;;;25.94;27.83;93651.78;4972773;28;20046;-74
2021/08/17 07:50:21;;;;;;;12.30;5.35;;;;;;;25.96;28.07;93645.88;4972960;28;20518;-75
2021/08/17 07:52:46;;;;;;;9.25;4.70;;;;;;;25.99;29.97;93643.13;4974822;28;20514;-76
2021/08/17 07:55:14;;;;;;;6.15;4.88;;;;;;;26.19;28.67;93637.72;4975659;28;20084;-75
2021/08/17 07:57:40;;;;;;;9.00;5.75;;;;;;;25.91;28.53;93638.22;4974502;28;20065;-73
2021/08/17 08:00:08;;;;;;;10.05;5.50;;;;;;;26.05;28.81;93643.44;4976438;28;20046;-75
2021/08/17 08:02:33;;;;;;;10.52;5.80;;;;;;;26.24;28.23;93620.13;4972974;28;20050;-74
2021/08/17 08:04:59;;;;;;;9.57;5.57;;;;;;;26.45;28.85;93639.56;4976953;28;20412;-74
2021/08/17 08:07:24;;;;;;;6.78;5.43;;;;;;;26.41;27.81;93636.13;4971007;28;20498;-74
2021/08/17 08:09:50;;;;;;;14.98;5.10;;;;;;;26.50;27.68;93641.06;4974296;28;20117;-74
2021/08/17 08:12:16;;;;;;;8.68;5.47;;;;;;;26.55;28.39;93633.16;4973079;28;20061;-75
2021/08/17 08:14:43;;;;;;;7.07;5.20;;;;;;;26.57;28.50;93631.97;4974290;28;20070;-76
2021/08/17 08:17:08;;;;;;;13.60;5.03;;;;;;;26.48;27.79;93625.13;4973010;28;20571;-74
2021/08/17 08:19:35;;;;;;;8.15;6.10;;;;;;;26.63;28.24;93624.84;4973778;28;20030;-74
2021/08/17 08:22:01;;;;;;;10.23;5.60;;;;;;;26.70;28.27;93628.19;4975718;28;20042;-76
2021/08/17 08:24:26;;;;;;;9.13;4.72;;;;;;;26.70;27.78;93614.56;4974937;28;20038;-74
2021/08/17 08:26:51;;;;;;;12.02;5.50;;;;;;;26.49;28.27;93629.41;4972425;28;20046;-73
2021/08/17 08:29:17;;;;;;;10.23;5.57;;;;;;;26.60;28.82;93622.94;4973204;28;20521;-74
2021/08/17 08:31:42;;;;;;;6.97;5.35;;;;;;;26.75;28.36;93619.53;4972670;28;20022;-74
2021/08/17 08:34:07;;;;;;;15.40;5.68;;;;;;;26.70;27.91;93625.47;4971799;28;20042;-74
2021/08/17 08:36:33;;;;;;;7.10;5.38;;;;;;;26.83;28.18;93620.16;4975537;28;20464;-74
2021/08/17 08:38:58;;;;;;;15.27;6.53;;;;;;;26.67;27.90;93606.47;4971987;28;20514;-74
2021/08/17 08:41:24;;;;;;;14.88;5.57;;;;;;;26.77;28.10;93619.88;4979126;28;20061;-75
2021/08/17 08:43:50;;;;;;;11.95;6.10;;;;;;;26.87;27.69;93604.50;4971894;28;20043;-74
2021/08/17 08:46:17;;;;;;;11.35;6.53;;;;;;;26.69;27.58;93593.19;4971254;28;20034;-74
2021/08/17 08:48:46;;;;;;;15.15;5.60;;;;;;;26.94;28.10;93610.56;4972160;28;20050;-74
2021/08/17 08:51:13;;;;;;;10.35;5.85;;;;;;;26.87;27.85;93593.56;4972903;28;20038;-74
2021/08/17 08:53:38;;;;;;;9.07;5.43;;;;;;;26.98;27.91;93605.03;4973590;28;20046;-74
2021/08/17 08:56:04;;;;;;;11.07;6.03;;;;;;;27.20;29.62;93603.41;4972135;28;20594;-74
2021/08/17 08:58:29;;;;;;;11.65;5.80;;;;;;;27.35;28.36;93599.16;4971111;28;20084;-74
2021/08/17 09:00:56;;;;;;;11.30;5.95;;;;;;;27.12;29.46;93593.84;4973525;28;20524;-75
2021/08/17 09:03:48;;;;;;;7.50;5.75;;;;;;;26.98;27.65;93594.13;4973075;28;20093;-74
2021/08/17 09:06:24;;;;;;;14.23;6.20;;;;;;;27.02;27.38;93583.16;4968979;28;20046;-75
2021/08/17 09:09:15;;;;;;;6.57;5.13;;;;;;;27.25;27.47;93585.75;4970193;28;20125;-74
2021/08/17 09:11:44;;;;;;;16.48;5.70;;;;;;;27.36;28.69;93584.31;4967697;28;20034;-76
2021/08/17 09:14:28;;;;;;;15.98;6.43;;;;;;;27.27;27.75;93577.91;4969561;28;20572;-76
2021/08/17 09:16:56;;;;;;;12.90;6.38;;;;;;;27.44;28.16;93581.41;4968223;28;20595;-75
2021/08/17 09:19:27;;;;;;;8.57;6.35;;;;;;;27.54;29.88;93574.94;4968823;28;20032;-77
2021/08/17 09:21:54;;;;;;;11.15;6.00;;;;;;;27.64;27.26;93573.94;4970882;28;20046;-74
2021/08/17 09:24:21;;;;;;;8.63;5.95;;;;;;;27.57;27.24;93582.31;4968091;28;20073;-75
2021/08/17 09:26:58;;;;;;;8.85;5.45;;;;;;;27.62;27.23;93576.34;4968050;28;20465;-75
2021/08/17 09:29:29;;;;;;;9.18;6.15;;;;;;;27.69;27.43;93574.19;4970232;28;20038;-74
2021/08/17 09:31:59;;;;;;;10.73;5.93;;;;;;;27.75;27.02;93568.97;4970177;28;21018;-75
2021/08/17 09:34:34;;;;;;;7.32;5.75;;;;;;;27.82;27.00;93574.25;4971201;28;20027;-75
2021/08/17 09:37:04;;;;;;;15.90;5.75;;;;;;;27.89;26.30;93571.34;4971687;28;20034;-74
2021/08/17 09:39:40;;;;;;;12.15;6.43;;;;;;;27.93;26.70;93568.53;4966271;28;20050;-74
2021/08/17 09:42:18;;;;;;;6.30;5.53;;;;;;;27.86;26.94;93568.72;4987049;28;20038;-74
2021/08/17 09:44:45;;;;;;;12.32;6.13;;;;;;;28.08;27.96;93561.50;4977536;28;20046;-74
2021/08/17 09:47:11;;;;;;;9.30;5.88;;;;;;;27.94;26.92;93543.50;4973785;28;20174;-75
2021/08/17 09:49:37;;;;;;;8.48;6.45;;;;;;;28.19;29.50;93549.13;4975242;28;20105;-76
2021/08/17 09:52:10;;;;;;;7.93;6.00;;;;;;;28.41;27.92;93553.97;4974941;28;20038;-76
2021/08/17 09:54:41;;;;;;;7.53;5.45;;;;;;;28.41;26.57;93564.91;4985862;28;20108;-75
2021/08/17 09:57:08;;;;;;;10.48;6.45;;;;;;;28.44;26.93;93564.06;4973149;28;20049;-74
2021/08/17 09:59:36;;;;;;;13.25;6.07;;;;;;;28.63;27.03;93560.41;4975565;28;20089;-74
2021/08/17 10:02:01;;;;;;;16.73;6.13;;;;;;;28.46;26.96;93556.97;4972717;28;20045;-74
2021/08/17 10:04:27;;;;;;;10.02;6.68;;;;;;;28.53;26.86;93550.53;4976099;28;20768;-75
2021/08/17 10:06:58;;;;;;;12.45;6.85;;;;;;;28.68;26.67;93562.63;4971948;28;20182;-75
2021/08/17 10:09:25;;;;;;;7.32;5.90;;;;;;;28.64;26.30;93556.50;4977867;28;20457;-75
2021/08/17 10:11:51;;;;;;;9.82;5.65;;;;;;;28.87;26.53;93558.19;4969699;28;20042;-74
2021/08/17 10:14:16;;;;;;;12.32;6.72;;;;;;;29.07;26.97;93562.25;4973953;28;20133;-75
2021/08/17 10:16:43;;;;;;;6.45;5.00;;;;;;;29.12;25.95;93558.19;4974055;28;20114;-75
2021/08/17 10:19:11;;;;;;;6.85;5.55;;;;;;;29.08;26.58;93558.31;4977654;28;20057;-74
2021/08/17 10:21:41;;;;;;;19.40;7.25;;;;;;;29.24;25.78;93553.94;4972669;28;20055;-74
2021/08/17 10:24:30;;;;;;;8.38;5.78;;;;;;;29.23;26.00;93552.44;4977007;28;20539;-74
2021/08/17 10:27:35;;;;;;;9.25;6.47;;;;;;;29.27;25.43;93547.59;4974563;28;20042;-74
2021/08/17 10:30:20;;;;;;;13.07;6.40;;;;;;;29.24;25.84;93537.50;4965158;28;20816;-76
2021/08/17 10:32:52;;;;;;;12.52;5.55;;;;;;;29.41;26.13;93542.44;4973299;28;20046;-75
2021/08/17 10:35:26;;;;;;;10.18;6.97;;;;;;;29.44;25.07;93530.59;4977226;28;20041;-74
2021/08/17 10:38:12;;;;;;;12.70;6.95;;;;;;;29.52;26.05;93525.66;4961498;28;20030;-74
2021/08/17 10:40:53;;;;;;;10.70;6.68;;;;;;;29.63;26.07;93536.25;4946388;28;20060;-74
2021/08/17 10:43:21;;;;;;;11.75;6.35;;;;;;;29.51;25.41;93526.88;4963376;28;20793;-75
2021/08/17 10:45:53;;;;;;;9.63;5.95;;;;;;;29.58;26.10;93521.16;4972343;28;20052;-75
2021/08/17 10:48:44;;;;;;;8.15;6.22;;;;;;;29.73;25.60;93524.97;4970486;28;20046;-74
2021/08/17 10:51:18;;;;;;;9.52;6.55;;;;;;;29.76;26.04;93513.16;4975513;28;20049;-75
2021/08/17 10:54:04;;;;;;;10.32;6.20;;;;;;;29.72;25.95;93517.97;4973231;28;20395;-74
2021/08/17 10:56:32;;;;;;;12.93;6.70;;;;;;;29.71;26.13;93505.50;4972313;28;20145;-73
2021/08/17 10:58:58;;;;;;;11.75;6.43;;;;;;;29.92;25.66;93504.75;4970176;28;20041;-73
2021/08/17 11:01:46;;;;;;;10.65;6.55;;;;;;;29.78;25.50;93486.03;4974381;28;20508;-72
2021/08/17 11:04:12;;;;;;;13.38;6.65;;;;;;;29.96;24.88;93498.38;4969097;28;20106;-75
2021/08/17 11:06:53;;;;;;;14.07;6.85;;;;;;;30.03;25.03;93498.91;4968368;28;20050;-73
2021/08/17 11:09:25;;;;;;;9.05;6.65;;;;;;;30.09;25.20;93485.38;4968663;28;20107;-74
2021/08/17 11:11:59;;;;;;;10.57;6.88;;;;;;;30.10;25.31;93484.94;4965375;28;20064;-73
2021/08/17 11:14:26;;;;;;;11.15;7.43;;;;;;;30.20;25.35;93475.59;4973094;28;20041;-73
2021/08/17 11:16:56;;;;;;;15.77;7.35;;;;;;;30.31;24.58;93483.44;4975290;28;20492;-73
2021/08/17 11:19:25;;;;;;;11.73;7.13;;;;;;;30.27;25.15;93477.31;4975810;28;21451;-72
2021/08/17 11:21:56;;;;;;;9.43;7.18;;;;;;;30.27;25.14;93474.56;4974013;28;20034;-73
2021/08/17 11:24:30;;;;;;;7.97;7.05;;;;;;;30.29;25.29;93474.91;4971864;28;20046;-72
2021/08/17 11:27:03;;;;;;;10.60;7.38;;;;;;;30.31;25.80;93469.72;4973203;28;20042;-74
2021/08/17 11:29:30;;;;;;;14.98;7.70;;;;;;;30.37;25.60;93467.94;4968116;28;20050;-76
2021/08/17 11:31:58;;;;;;;13.55;7.68;;;;;;;30.63;25.16;93463.81;4970142;28;20480;-74